Time;durP1;ratioP1;P1;durP2;ratioP2;P2;SDS_P1;SDS_P2;PMS_P1;PMS_P2;Temp;Humidity;BMP_temperature;BMP_pressure;BME280_temperature;BME280_humidity;BME280_pressure;Samples;Min_cycle;Max_cycle;Signal;HPM_P1;HPM_P2
2022/08/14 00:01:51;;;;;;;11.90;6.45;;;;;;;20.94;62.35;101090.41;5051328;28;20025;-50
2022/08/14 00:04:16;;;;;;;11.45;6.28;;;;;;;20.89;62.00;101093.81;5036617;28;20052;-49
2022/08/14 00:06:41;;;;;;;9.65;6.78;;;;;;;20.87;62.50;101090.47;5043271;28;20077;-49
2022/08/14 00:09:07;;;;;;;10.25;6.72;;;;;;;20.75;62.55;101082.25;5056607;28;20067;-45
2022/08/14 00:11:32;;;;;;;13.20;7.30;;;;;;;20.83;62.31;101090.09;5057088;28;20024;-44
2022/08/14 00:13:59;;;;;;;13.45;7.10;;;;;;;20.81;63.25;101089.50;5055567;28;20491;-46
2022/08/14 00:16:25;;;;;;;11.88;7.60;;;;;;;20.70;63.14;101092.13;5055624;28;20024;-47
2022/08/14 00:18:50;;;;;;;9.32;6.70;;;;;;;20.62;63.56;101082.31;5053345;28;20517;-47
2022/08/14 00:21:15;;;;;;;17.58;6.78;;;;;;;20.60;63.91;101073.59;5046273;28;20029;-49
2022/08/14 00:23:41;;;;;;;13.88;6.15;;;;;;;20.57;64.12;101074.00;5036863;28;20040;-46
2022/08/14 00:26:07;;;;;;;12.70;6.80;;;;;;;20.56;64.01;101066.94;5036566;28;20635;-47
2022/08/14 00:28:34;;;;;;;10.43;6.90;;;;;;;20.50;64.59;101076.78;5041599;28;20032;-49
2022/08/14 00:30:59;;;;;;;13.23;6.85;;;;;;;20.46;65.08;101067.44;5052177;28;20035;-50
2022/08/14 00:33:26;;;;;;;12.73;6.78;;;;;;;20.39;64.98;101061.25;5056760;28;20016;-47
2022/08/14 00:35:52;;;;;;;16.02;7.28;;;;;;;20.33;64.73;101056.69;5055704;28;20024;-49
2022/08/14 00:38:17;;;;;;;11.77;7.00;;;;;;;20.24;65.74;101059.66;5056853;28;20361;-48
2022/08/14 00:40:43;;;;;;;12.02;7.68;;;;;;;20.12;66.05;101048.69;5047922;28;20313;-45
2022/08/14 00:43:10;;;;;;;10.38;6.88;;;;;;;20.08;66.26;101047.50;5055395;28;20086;-49
2022/08/14 00:45:35;;;;;;;14.48;7.32;;;;;;;19.98;67.31;101036.31;5049847;28;20056;-44
2022/08/14 00:48:00;;;;;;;10.10;7.43;;;;;;;20.11;66.19;101038.91;5036147;28;20106;-47
2022/08/14 00:50:29;;;;;;;14.80;7.00;;;;;;;20.12;66.30;101042.44;5035765;28;20098;-47
2022/08/14 00:52:56;;;;;;;17.08;7.25;;;;;;;20.25;65.65;101038.81;5050089;28;20024;-50
2022/08/14 00:55:22;;;;;;;8.02;6.85;;;;;;;20.32;65.87;101028.75;5056020;28;20032;-49
2022/08/14 00:58:29;;;;;;;12.20;6.57;;;;;;;20.40;65.17;101033.91;5040751;28;20132;-48
2022/08/14 01:00:34;;;;;;;11.73;6.90;;;;;;;20.48;64.56;101035.50;5034236;28;20036;-46
2022/08/14 01:03:00;;;;;;;12.45;7.03;;;;;;;20.53;64.66;101032.13;5038930;28;20132;-47
2022/08/14 01:05:26;;;;;;;10.57;7.03;;;;;;;20.58;64.44;101030.38;5055010;28;20043;-47
2022/08/14 01:07:54;;;;;;;10.32;6.97;;;;;;;20.59;63.76;101021.19;5056659;28;20024;-47
2022/08/14 01:10:20;;;;;;;13.13;7.15;;;;;;;20.64;64.12;101012.44;5055170;28;20126;-49
2022/08/14 01:12:47;;;;;;;8.80;7.20;;;;;;;20.68;63.54;101014.44;5047463;28;20127;-47
2022/08/14 01:15:15;;;;;;;13.40;7.35;;;;;;;20.77;62.88;101008.72;5054073;28;20622;-47
2022/08/14 01:23:11;;;;;;;13.77;7.15;;;;;;;20.83;61.81;100999.69;5050716;28;20374;-47
2022/08/14 01:25:37;;;;;;;11.07;7.15;;;;;;;20.88;62.28;100997.13;5051251;28;20257;-47
2022/08/14 01:28:03;;;;;;;11.75;6.70;;;;;;;20.89;61.87;100997.97;5036313;28;20025;-45
2022/08/14 01:30:31;;;;;;;16.63;7.65;;;;;;;20.94;62.03;100998.09;5033837;28;20029;-50
2022/08/14 01:32:56;;;;;;;15.15;7.50;;;;;;;20.91;61.99;100996.69;5035772;28;20028;-47
2022/08/14 01:35:22;;;;;;;12.63;6.80;;;;;;;20.89;61.66;100998.78;5037931;28;20070;-48
2022/08/14 01:37:48;;;;;;;12.90;7.32;;;;;;;20.86;62.16;100994.66;5055697;28;20479;-47
2022/08/14 01:40:13;;;;;;;11.73;7.05;;;;;;;20.84;61.88;100995.91;5055085;28;20024;-49
2022/08/14 01:42:41;;;;;;;12.98;6.72;;;;;;;20.81;62.06;100993.66;5054670;28;20495;-46
2022/08/14 01:45:11;;;;;;;14.20;7.15;;;;;;;20.75;62.36;100991.84;5047415;28;20499;-47
2022/08/14 01:47:37;;;;;;;9.95;6.97;;;;;;;20.75;62.21;100997.28;5039001;28;20127;-49
2022/08/14 01:50:05;;;;;;;17.88;7.20;;;;;;;20.71;62.62;101005.03;5050496;28;20340;-46
2022/08/14 01:52:35;;;;;;;8.00;7.20;;;;;;;20.64;62.39;100998.84;5048091;28;20088;-50
2022/08/14 01:55:07;;;;;;;11.43;7.30;;;;;;;20.59;62.81;100999.50;5037162;28;20380;-47
2022/08/14 01:57:36;;;;;;;12.73;7.28;;;;;;;20.58;62.86;100999.72;5049895;28;20090;-48
2022/08/14 02:00:07;;;;;;;10.88;7.85;;;;;;;20.48;63.76;101003.78;5054899;28;20489;-46
2022/08/14 02:02:33;;;;;;;12.27;7.78;;;;;;;20.41;63.48;100997.56;5034967;28;20602;-48
2022/08/14 02:04:59;;;;;;;16.02;7.50;;;;;;;20.39;63.65;100990.72;5034532;28;20455;-49
2022/08/14 02:07:25;;;;;;;10.32;7.50;;;;;;;20.32;64.82;100993.50;5034344;28;20205;-47
2022/08/14 02:09:50;;;;;;;11.77;7.78;;;;;;;20.28;64.91;100984.13;5034953;28;20485;-50
2022/08/14 02:12:16;;;;;;;14.00;7.70;;;;;;;20.28;65.72;100984.97;5035106;28;20032;-48
2022/08/14 02:14:42;;;;;;;9.57;7.75;;;;;;;20.18;65.09;100979.22;5038246;28;20028;-46
2022/08/14 02:17:08;;;;;;;11.02;7.15;;;;;;;20.13;65.07;100989.91;5047085;28;20253;-46
2022/08/14 02:19:34;;;;;;;13.70;7.95;;;;;;;20.06;65.18;100989.94;5041452;28;20104;-47
2022/08/14 02:22:02;;;;;;;11.00;7.68;;;;;;;19.99;65.64;100986.44;5055090;28;20479;-47
2022/08/14 02:24:29;;;;;;;13.85;7.95;;;;;;;19.96;66.74;100992.31;5042926;28;20032;-48
2022/08/14 02:26:56;;;;;;;13.30;7.70;;;;;;;19.97;66.48;100982.31;5051054;28;20168;-48
2022/08/14 02:29:23;;;;;;;11.27;7.72;;;;;;;19.89;67.04;100983.38;5050804;28;20510;-47
2022/08/14 02:31:52;;;;;;;12.90;8.00;;;;;;;19.88;67.04;100982.56;5049070;28;20075;-46
2022/08/14 02:34:25;;;;;;;11.00;7.95;;;;;;;19.87;67.47;100990.91;5033995;28;20152;-49
2022/08/14 02:36:52;;;;;;;14.57;8.05;;;;;;;19.81;68.46;100984.50;5032404;28;20017;-47
2022/08/14 02:39:18;;;;;;;11.10;7.68;;;;;;;19.81;67.85;100989.91;5035305;28;20075;-48
2022/08/14 02:41:45;;;;;;;12.15;7.53;;;;;;;19.74;68.46;100980.97;5034567;28;20044;-51
2022/08/14 02:44:11;;;;;;;14.05;8.40;;;;;;;19.67;69.14;100985.59;5034085;28;20513;-48
2022/08/14 02:46:38;;;;;;;11.48;8.77;;;;;;;19.61;69.14;100983.75;5044437;28;20140;-50
2022/08/14 02:49:05;;;;;;;10.98;8.55;;;;;;;19.54;69.80;100981.91;5051249;28;20286;-51
2022/08/14 02:51:32;;;;;;;15.05;8.52;;;;;;;19.51;70.76;100984.22;5053882;28;20427;-48
2022/08/14 02:54:00;;;;;;;13.85;8.85;;;;;;;19.49;70.08;100981.72;5055099;28;20028;-50
2022/08/14 02:56:26;;;;;;;13.45;8.70;;;;;;;19.50;71.01;100975.28;5043061;28;20035;-47
2022/08/14 02:58:54;;;;;;;17.98;8.48;;;;;;;19.51;71.36;100967.97;5042212;28;20111;-47
2022/08/14 03:01:20;;;;;;;12.63;9.15;;;;;;;19.43;70.87;100969.03;5041044;28;20324;-51
2022/08/14 03:03:49;;;;;;;14.23;8.85;;;;;;;19.34;71.46;100970.38;5040709;28;20520;-49
2022/08/14 03:06:19;;;;;;;10.52;8.73;;;;;;;19.33;71.61;100977.66;5057268;28;20135;-50
2022/08/14 03:08:45;;;;;;;13.32;8.90;;;;;;;19.27;72.04;100969.56;5058204;28;20039;-50
2022/08/14 03:11:12;;;;;;;16.83;9.02;;;;;;;19.25;74.61;100964.38;5057412;28;20411;-48
2022/08/14 03:13:43;;;;;;;15.35;9.13;;;;;;;19.13;74.77;100964.22;5058205;28;20040;-45
2022/08/14 03:16:13;;;;;;;16.38;9.57;;;;;;;19.06;75.88;100959.84;5056980;28;20490;-45
2022/08/14 03:18:43;;;;;;;14.23;9.50;;;;;;;18.99;77.75;100957.19;5056499;28;20028;-44
2022/08/14 03:21:19;;;;;;;16.77;9.25;;;;;;;18.85;77.25;100964.50;5052967;28;20028;-46
2022/08/14 03:23:46;;;;;;;13.30;9.38;;;;;;;18.85;79.13;100963.69;5037382;28;20075;-47
2022/08/14 03:26:14;;;;;;;15.13;9.00;;;;;;;18.74;80.64;100967.88;5038222;28;20100;-46
2022/08/14 03:28:42;;;;;;;18.95;9.68;;;;;;;18.61;81.16;100961.41;5045268;28;20042;-50
2022/08/14 03:31:09;;;;;;;19.45;10.02;;;;;;;18.52;80.14;100960.00;5054487;28;20340;-50
2022/08/14 03:33:39;;;;;;;24.88;10.10;;;;;;;18.51;85.18;100960.22;5055731;28;20020;-45
2022/08/14 03:36:11;;;;;;;22.55;9.98;;;;;;;18.51;84.23;100952.91;5037740;28;20028;-50
2022/08/14 03:38:41;;;;;;;22.38;10.20;;;;;;;18.46;83.20;100947.31;5037602;28;20020;-46
2022/08/14 03:41:09;;;;;;;20.75;9.80;;;;;;;18.46;84.47;100952.72;5046383;28;20020;-49
2022/08/14 03:43:35;;;;;;;20.30;9.60;;;;;;;18.45;83.33;100951.91;5056873;28;20099;-49
2022/08/14 03:46:01;;;;;;;13.55;9.13;;;;;;;18.49;81.64;100946.88;5054825;28;20080;-47
2022/08/14 03:48:28;;;;;;;12.88;9.48;;;;;;;18.45;80.87;100948.38;5056425;28;20487;-47
2022/08/14 03:50:53;;;;;;;12.73;9.00;;;;;;;18.45;82.82;100948.38;5056961;28;20024;-49
2022/08/14 03:53:19;;;;;;;18.50;9.40;;;;;;;18.43;83.99;100937.75;5052048;28;20036;-47
2022/08/14 03:55:45;;;;;;;16.52;9.52;;;;;;;18.37;84.36;100941.28;5042113;28;20045;-45
2022/08/14 03:58:11;;;;;;;11.15;9.23;;;;;;;18.38;83.01;100942.97;5050262;28;20078;-46
2022/08/14 04:00:39;;;;;;;14.52;9.95;;;;;;;18.37;84.59;100943.19;5055123;28;20032;-47
2022/08/14 04:03:08;;;;;;;13.25;9.73;;;;;;;18.30;83.39;100936.94;5055673;28;20758;-49
2022/08/14 04:05:37;;;;;;;12.25;9.43;;;;;;;18.27;83.72;100940.91;5053822;28;20024;-46
2022/08/14 04:08:07;;;;;;;14.07;9.20;;;;;;;18.17;83.41;100954.81;5050385;28;20116;-46
2022/08/14 04:10:33;;;;;;;10.47;9.37;;;;;;;18.17;84.39;100949.41;5037713;28;20029;-48
2022/08/14 04:13:00;;;;;;;15.80;9.55;;;;;;;18.15;85.02;100948.81;5037405;28;20025;-49
2022/08/14 04:15:26;;;;;;;11.63;9.52;;;;;;;18.16;87.18;100942.38;5051464;28;20033;-46
2022/08/14 04:17:52;;;;;;;12.52;9.82;;;;;;;18.18;86.04;100947.56;5057418;28;20387;-47
2022/08/14 04:20:19;;;;;;;12.73;9.55;;;;;;;18.13;85.63;100931.97;5055478;28;20024;-48
2022/08/14 04:22:44;;;;;;;13.40;9.88;;;;;;;18.15;86.40;100938.00;5057661;28;20151;-50
2022/08/14 04:25:10;;;;;;;13.35;10.15;;;;;;;18.15;85.27;100937.16;5052565;28;20060;-50
2022/08/14 04:27:36;;;;;;;15.95;9.98;;;;;;;18.16;84.99;100928.84;5037139;28;20507;-46
2022/08/14 04:30:04;;;;;;;17.75;10.95;;;;;;;18.15;86.02;100934.47;5053154;28;20025;-50
2022/08/14 04:32:32;;;;;;;14.05;10.63;;;;;;;18.11;84.95;100941.31;5054328;28;20027;-47
2022/08/14 04:34:58;;;;;;;13.95;10.20;;;;;;;18.08;85.58;100935.28;5039040;28;20031;-46
2022/08/14 04:45:41;;;;;;;14.05;10.88;;;;;;;18.07;84.98;100924.69;5046503;28;20047;-46
2022/08/14 04:48:11;;;;;;;18.77;11.30;;;;;;;18.01;85.18;100917.44;5036772;28;20097;-46
2022/08/14 04:50:38;;;;;;;17.90;11.25;;;;;;;18.03;85.42;100924.28;5035043;28;20031;-46
2022/08/14 04:53:04;;;;;;;19.00;11.70;;;;;;;18.05;87.40;100922.19;5037686;28;20094;-48
2022/08/14 04:55:29;;;;;;;15.65;11.50;;;;;;;18.03;85.84;100924.28;5049388;28;20028;-50
2022/08/14 04:57:55;;;;;;;23.05;12.43;;;;;;;18.00;86.13;100919.28;5036610;28;20043;-44
2022/08/14 05:00:21;;;;;;;16.85;11.93;;;;;;;18.00;85.92;100910.34;5035016;28;20039;-44
2022/08/14 05:02:47;;;;;;;16.20;12.30;;;;;;;18.04;88.38;100900.78;5048765;28;20320;-47
2022/08/14 05:05:12;;;;;;;19.42;12.45;;;;;;;18.02;86.99;100914.50;5055214;28;20131;-50
2022/08/14 05:07:38;;;;;;;22.40;11.93;;;;;;;18.00;86.96;100902.25;5037065;28;20048;-47
2022/08/14 05:10:04;;;;;;;24.63;12.80;;;;;;;17.99;86.90;100898.72;5040132;28;20070;-49
2022/08/14 05:12:30;;;;;;;19.33;13.00;;;;;;;18.02;87.77;100897.47;5038536;28;20021;-45
2022/08/14 05:14:55;;;;;;;20.23;12.45;;;;;;;18.08;88.24;100892.03;5051204;28;20035;-49
2022/08/14 05:17:24;;;;;;;21.65;12.77;;;;;;;18.15;86.67;100902.03;5042479;28;20411;-45
2022/08/14 05:19:49;;;;;;;20.08;12.70;;;;;;;18.13;85.86;100896.00;5034235;28;20024;-49
2022/08/14 05:22:15;;;;;;;23.45;12.45;;;;;;;18.18;85.24;100901.63;5035956;28;20032;-48
2022/08/14 05:24:40;;;;;;;23.45;13.05;;;;;;;18.20;86.60;100904.94;5035292;28;20304;-46
2022/08/14 05:27:08;;;;;;;25.88;12.85;;;;;;;18.23;85.77;100893.72;5035863;28;20507;-49
2022/08/14 05:29:34;;;;;;;18.95;13.30;;;;;;;18.29;85.81;100897.44;5035926;28;20275;-49
2022/08/14 05:32:06;;;;;;;18.88;13.13;;;;;;;18.38;86.85;100897.00;5034969;28;20103;-47
2022/08/14 05:34:32;;;;;;;20.90;13.95;;;;;;;18.40;86.86;100900.31;5044591;28;20456;-45
2022/08/14 05:36:59;;;;;;;22.85;13.13;;;;;;;18.43;87.38;100905.31;5047685;28;20028;-47
2022/08/14 05:39:24;;;;;;;20.83;13.38;;;;;;;18.48;86.27;100896.53;5054141;28;20113;-47
2022/08/14 05:41:50;;;;;;;25.35;13.70;;;;;;;18.53;86.70;100893.19;5035381;28;20549;-50
2022/08/14 05:44:16;;;;;;;25.35;13.82;;;;;;;18.53;86.55;100890.50;5045005;28;20031;-50
2022/08/14 05:46:41;;;;;;;23.88;14.32;;;;;;;18.63;87.20;100897.16;5034478;28;20321;-49
2022/08/14 05:49:06;;;;;;;22.15;14.73;;;;;;;18.68;86.33;100885.66;5051615;28;20020;-48
2022/08/14 05:51:31;;;;;;;22.90;14.55;;;;;;;18.76;85.86;100890.84;5037201;28;20043;-50
2022/08/14 05:53:57;;;;;;;21.10;14.55;;;;;;;18.81;85.92;100896.44;5034203;28;20145;-48
2022/08/14 05:56:24;;;;;;;20.75;14.90;;;;;;;18.92;84.54;100894.94;5034945;28;20297;-48
2022/08/14 05:58:50;;;;;;;29.15;16.10;;;;;;;18.99;84.95;100889.50;5034596;28;20547;-50
2022/08/14 06:01:15;;;;;;;27.25;16.25;;;;;;;19.12;85.69;100894.84;5034054;28;20112;-46
2022/08/14 06:03:40;;;;;;;20.48;16.08;;;;;;;19.19;85.90;100889.41;5034434;28;20132;-47
2022/08/14 06:06:06;;;;;;;23.77;15.95;;;;;;;19.27;83.18;100894.56;5035100;28;20506;-48
2022/08/14 06:08:32;;;;;;;26.20;17.02;;;;;;;19.32;84.96;100892.03;5043618;28;20041;-47
2022/08/14 06:11:02;;;;;;;20.13;16.08;;;;;;;19.42;83.29;100891.56;5038627;28;20032;-49
2022/08/14 06:13:32;;;;;;;24.27;15.83;;;;;;;19.50;84.11;100890.47;5035407;28;20108;-47
2022/08/14 06:15:58;;;;;;;21.58;15.70;;;;;;;19.60;82.25;100887.28;5034093;28;20511;-50
2022/08/14 06:18:23;;;;;;;26.27;16.67;;;;;;;19.70;80.47;100885.72;5041261;28;20039;-49
2022/08/14 06:20:48;;;;;;;19.85;15.30;;;;;;;19.80;80.09;100892.56;5052476;28;20103;-47
2022/08/14 06:23:14;;;;;;;18.67;14.80;;;;;;;19.91;77.93;100891.84;5035172;28;20021;-49
2022/08/14 06:25:40;;;;;;;25.80;15.00;;;;;;;20.03;77.49;100895.50;5035345;28;20080;-46
2022/08/14 06:28:06;;;;;;;25.17;14.80;;;;;;;20.12;77.69;100886.00;5035426;28;20031;-45
2022/08/14 06:30:33;;;;;;;20.38;15.40;;;;;;;20.22;76.92;100892.81;5039670;28;20383;-48
2022/08/14 06:32:58;;;;;;;20.27;15.40;;;;;;;20.28;76.71;100884.63;5040601;28;20055;-50
2022/08/14 06:35:24;;;;;;;18.02;15.13;;;;;;;20.42;76.69;100879.06;5041681;28;20143;-47
2022/08/14 06:37:55;;;;;;;20.80;14.68;;;;;;;20.58;75.35;100883.84;5043036;28;20024;-48
2022/08/14 06:40:26;;;;;;;29.20;14.05;;;;;;;20.70;75.02;100878.53;5050384;28;20025;-47
2022/08/14 06:42:52;;;;;;;17.13;14.20;;;;;;;20.81;75.10;100877.78;5055436;28;20392;-49
2022/08/14 06:45:18;;;;;;;18.45;13.95;;;;;;;20.93;73.48;100874.28;5060274;28;20020;-48
2022/08/14 06:47:45;;;;;;;16.27;13.55;;;;;;;21.04;73.90;100874.34;5059074;28;20398;-46
2022/08/14 06:50:16;;;;;;;23.00;13.75;;;;;;;21.18;73.47;100883.13;5047714;28;20548;-47
2022/08/14 06:52:42;;;;;;;16.75;13.32;;;;;;;21.30;72.70;100875.03;5061356;28;20012;-51
2022/08/14 06:55:09;;;;;;;17.10;12.55;;;;;;;21.42;72.89;100875.06;5044157;28;20344;-50
2022/08/14 06:57:37;;;;;;;25.58;12.85;;;;;;;21.56;71.65;100879.25;5041011;28;20017;-46
2022/08/14 07:00:13;;;;;;;18.27;12.43;;;;;;;21.71;70.81;100878.78;5040787;28;20060;-46
2022/08/14 07:08:13;;;;;;;16.13;12.38;;;;;;;22.14;70.32;100863.19;5040063;28;20051;-48
2022/08/14 07:10:38;;;;;;;16.17;12.05;;;;;;;22.33;68.99;100862.00;5054454;28;21060;-47
2022/08/14 07:13:04;;;;;;;18.13;11.88;;;;;;;22.40;68.21;100859.16;5050089;28;20025;-48
2022/08/14 07:15:30;;;;;;;16.20;12.35;;;;;;;22.58;66.55;100860.91;5041515;28;20564;-49
2022/08/14 07:17:55;;;;;;;13.98;11.55;;;;;;;22.77;67.06;100867.00;5060693;28;20035;-50
2022/08/14 07:20:21;;;;;;;17.83;11.68;;;;;;;22.95;65.48;100863.28;5059670;28;20024;-51
2022/08/14 07:22:47;;;;;;;14.43;10.95;;;;;;;23.12;65.38;100862.53;5059390;28;20028;-48
2022/08/14 07:25:12;;;;;;;14.85;11.57;;;;;;;23.25;63.52;100862.19;5041837;28;20101;-47
2022/08/14 07:27:39;;;;;;;19.60;11.93;;;;;;;23.39;66.62;100860.00;5038774;28;20569;-50
2022/08/14 07:30:05;;;;;;;19.27;12.00;;;;;;;23.54;63.16;100860.28;5040786;28;20105;-49
2022/08/14 07:32:30;;;;;;;16.92;11.73;;;;;;;23.69;63.06;100870.56;5060279;28;20166;-46
2022/08/14 07:34:56;;;;;;;18.15;11.32;;;;;;;23.86;62.44;100864.31;5059924;28;20114;-45
2022/08/14 07:37:21;;;;;;;16.13;11.65;;;;;;;23.94;60.53;100862.00;5059696;28;20283;-46
2022/08/14 07:39:46;;;;;;;14.23;11.30;;;;;;;24.08;60.63;100867.09;5058693;28;20522;-48
2022/08/14 07:42:12;;;;;;;16.23;11.13;;;;;;;24.17;59.85;100865.63;5041600;28;20468;-48
2022/08/14 07:44:37;;;;;;;14.80;11.25;;;;;;;24.33;59.57;100855.72;5050338;28;20036;-49
2022/08/14 07:47:03;;;;;;;19.33;11.57;;;;;;;24.44;58.69;100854.78;5037161;28;20021;-50
2022/08/14 07:49:30;;;;;;;14.02;10.82;;;;;;;24.56;60.92;100851.97;5039784;28;20284;-49
2022/08/14 07:51:55;;;;;;;19.33;11.40;;;;;;;24.66;59.56;100853.97;5045687;28;20036;-46
2022/08/14 07:54:21;;;;;;;14.00;10.93;;;;;;;24.85;61.70;100852.56;5046741;28;20033;-47
2022/08/14 07:56:46;;;;;;;19.92;11.32;;;;;;;24.94;57.57;100851.00;5037513;28;20079;-50
2022/08/14 07:59:12;;;;;;;15.82;11.05;;;;;;;25.10;56.55;100862.94;5036932;28;20112;-49
2022/08/14 08:01:39;;;;;;;15.80;10.70;;;;;;;25.22;57.25;100856.47;5035870;28;20078;-48
2022/08/14 08:04:06;;;;;;;15.23;10.95;;;;;;;25.37;55.64;100864.03;5036209;28;20045;-50
2022/08/14 08:06:32;;;;;;;12.40;10.50;;;;;;;25.48;55.34;100865.78;5053609;28;20035;-47
2022/08/14 08:08:59;;;;;;;20.10;10.80;;;;;;;25.61;56.90;100864.50;5057794;28;20024;-47
2022/08/14 08:11:32;;;;;;;14.15;10.45;;;;;;;25.72;57.16;100870.91;5056906;28;20029;-47
2022/08/14 08:14:01;;;;;;;14.80;10.52;;;;;;;25.79;56.78;100860.53;5047895;28;20032;-50
2022/08/14 08:16:27;;;;;;;15.48;10.30;;;;;;;25.96;56.08;100866.72;5034689;28;20025;-48
2022/08/14 08:18:53;;;;;;;12.02;10.43;;;;;;;26.06;54.51;100868.69;5036912;28;20021;-50
2022/08/14 08:21:18;;;;;;;16.13;10.88;;;;;;;26.12;54.48;100858.59;5052410;28;20435;-49
2022/08/14 08:23:43;;;;;;;18.13;11.13;;;;;;;26.17;52.43;100853.97;5040849;28;20560;-48
2022/08/14 08:26:09;;;;;;;13.88;10.27;;;;;;;26.28;54.20;100859.50;5055155;28;20266;-49
2022/08/14 08:28:35;;;;;;;18.58;10.75;;;;;;;26.38;54.49;100854.91;5048591;28;20035;-48
2022/08/14 08:31:04;;;;;;;16.00;10.25;;;;;;;26.49;55.51;100852.19;5036541;28;20108;-46
2022/08/14 08:33:34;;;;;;;13.15;10.35;;;;;;;26.59;53.82;100849.50;5035588;28;20115;-50
2022/08/14 08:36:04;;;;;;;17.45;9.85;;;;;;;26.84;54.88;100840.56;5036987;28;20087;-46
2022/08/14 08:38:30;;;;;;;13.77;10.00;;;;;;;26.87;53.72;100833.72;5037259;28;20021;-49
2022/08/14 08:40:57;;;;;;;13.40;10.20;;;;;;;26.98;53.42;100838.13;5036689;28;20056;-52
2022/08/14 08:43:27;;;;;;;19.92;10.27;;;;;;;26.98;52.08;100840.88;5039756;28;20091;-48
2022/08/14 08:46:04;;;;;;;15.90;10.65;;;;;;;27.06;53.42;100842.28;5053602;28;20027;-50
2022/08/14 08:48:47;;;;;;;12.18;10.10;;;;;;;27.13;53.20;100842.81;5050574;28;20155;-47
2022/08/14 08:51:26;;;;;;;16.95;10.45;;;;;;;27.20;51.63;100851.59;5056589;28;20047;-49
2022/08/14 08:54:14;;;;;;;12.48;10.05;;;;;;;27.50;53.06;100845.34;5050018;28;20041;-51
2022/08/14 08:56:42;;;;;;;15.35;9.20;;;;;;;27.66;51.40;100848.88;5038289;28;20206;-51
2022/08/14 08:59:28;;;;;;;18.80;10.15;;;;;;;27.71;50.01;100839.81;5035976;28;20099;-50
2022/08/14 09:01:59;;;;;;;15.35;8.65;;;;;;;27.87;53.24;100835.16;5042711;28;20035;-47
2022/08/14 09:04:26;;;;;;;12.60;8.20;;;;;;;27.96;50.75;100828.00;5053545;28;20055;-50
2022/08/14 09:06:52;;;;;;;11.00;8.55;;;;;;;28.06;49.46;100835.41;5036830;28;20388;-50
2022/08/14 09:09:25;;;;;;;14.10;8.05;;;;;;;28.21;48.92;100831.81;5036011;28;20359;-48
2022/08/14 09:11:55;;;;;;;11.40;8.43;;;;;;;28.39;49.98;100838.59;5034677;28;20048;-50
2022/08/14 09:14:21;;;;;;;13.60;8.20;;;;;;;28.47;49.94;100838.00;5035852;28;20037;-48
2022/08/14 09:16:48;;;;;;;16.98;7.90;;;;;;;28.62;49.38;100832.47;5040382;28;20036;-50
2022/08/14 09:19:14;;;;;;;9.98;7.43;;;;;;;28.73;47.81;100824.97;5049585;28;20742;-48
2022/08/14 09:21:39;;;;;;;10.02;7.38;;;;;;;28.83;48.82;100816.66;5056115;28;20107;-51
2022/08/14 09:24:06;;;;;;;10.48;7.13;;;;;;;29.01;46.27;100812.44;5041139;28;20037;-51
2022/08/14 09:26:32;;;;;;;12.25;7.70;;;;;;;29.03;45.75;100812.97;5042552;28;20544;-49
2022/08/14 09:28:58;;;;;;;9.07;7.57;;;;;;;29.11;46.36;100817.03;5051946;28;20028;-50
2022/08/14 09:31:26;;;;;;;12.32;7.10;;;;;;;29.47;52.19;100818.72;5046484;28;20085;-52
2022/08/14 09:33:54;;;;;;;13.10;8.20;;;;;;;29.37;47.25;100819.63;5052624;28;20143;-47
2022/08/14 09:36:33;;;;;;;11.52;8.10;;;;;;;29.41;47.33;100808.84;5055341;28;20028;-47
2022/08/14 09:39:31;;;;;;;11.48;7.50;;;;;;;29.44;48.15;100805.53;5055904;28;20490;-50
2022/08/14 09:42:25;;;;;;;12.00;7.35;;;;;;;29.70;48.75;100806.09;5041291;28;20788;-51
2022/08/14 09:45:15;;;;;;;14.85;7.85;;;;;;;29.83;46.14;100808.19;5035013;28;20033;-50
2022/08/14 09:47:49;;;;;;;10.77;7.57;;;;;;;30.04;46.47;100799.69;5041806;28;20174;-49
2022/08/14 09:50:18;;;;;;;13.10;7.93;;;;;;;30.13;44.35;100801.50;5040929;28;20128;-49
2022/08/14 09:52:50;;;;;;;12.73;7.40;;;;;;;30.28;44.59;100802.44;5038379;28;20040;-48
2022/08/14 09:55:19;;;;;;;11.40;6.82;;;;;;;30.36;43.71;100790.78;5035016;28;20606;-47
2022/08/14 09:57:45;;;;;;;12.40;7.60;;;;;;;30.57;45.76;100788.56;5044480;28;20021;-47
2022/08/14 10:00:17;;;;;;;9.70;6.65;;;;;;;30.47;41.03;100784.03;5034163;28;20773;-49
2022/08/14 10:03:01;;;;;;;13.48;7.30;;;;;;;30.47;41.91;100775.75;5027510;28;20033;-50
2022/08/14 10:05:32;;;;;;;8.02;6.93;;;;;;;30.58;43.07;100772.84;5034590;28;20045;-47
2022/08/14 10:07:59;;;;;;;9.30;6.40;;;;;;;30.68;43.31;100772.69;5053690;28;20060;-49
2022/08/14 10:10:39;;;;;;;11.45;7.10;;;;;;;30.75;42.54;100766.81;5054750;28;20037;-51
2022/08/14 10:13:06;;;;;;;8.18;6.82;;;;;;;30.84;42.41;100765.84;5055000;28;20027;-48
2022/08/14 10:15:37;;;;;;;9.10;6.75;;;;;;;31.02;45.82;100764.19;5034018;28;20029;-51
2022/08/14 10:18:14;;;;;;;10.40;6.75;;;;;;;31.05;41.70;100751.75;5034558;28;20036;-48
2022/08/14 10:20:42;;;;;;;13.77;7.10;;;;;;;31.19;39.88;100760.06;5039382;28;20029;-46
2022/08/14 10:23:16;;;;;;;12.10;6.70;;;;;;;31.31;39.73;100759.56;5038877;28;20028;-47
2022/08/14 10:25:44;;;;;;;12.07;6.50;;;;;;;31.37;39.55;100756.44;5044836;28;20468;-50
2022/08/14 10:28:14;;;;;;;17.10;6.07;;;;;;;31.54;40.94;100752.31;5055064;28;20029;-50
2022/08/14 10:30:40;;;;;;;9.75;5.45;;;;;;;31.68;37.75;100744.03;5043903;28;20103;-48
2022/08/14 10:33:05;;;;;;;7.57;5.40;;;;;;;31.84;39.12;100750.88;5032461;28;20532;-51
2022/08/14 10:35:39;;;;;;;7.75;6.00;;;;;;;31.79;37.70;100742.72;5033774;28;20032;-50
2022/08/14 10:38:04;;;;;;;7.63;5.18;;;;;;;31.97;40.66;100740.94;5049074;28;20062;-49
2022/08/14 10:40:31;;;;;;;7.88;5.43;;;;;;;31.89;37.30;100739.75;5055449;28;20036;-51
2022/08/14 10:42:56;;;;;;;8.25;5.25;;;;;;;31.98;38.02;100731.53;5037115;28;20022;-51
2022/08/14 10:45:29;;;;;;;11.75;6.20;;;;;;;31.89;38.13;100720.41;5032721;28;20036;-50
2022/08/14 10:47:54;;;;;;;10.43;5.60;;;;;;;31.88;37.85;100717.94;5034445;28;20112;-47
2022/08/14 10:50:34;;;;;;;14.35;5.30;;;;;;;32.06;37.13;100716.19;5034559;28;20550;-51
2022/08/14 10:53:04;;;;;;;6.40;5.47;;;;;;;32.13;37.05;100708.28;5036070;28;20080;-52
2022/08/14 10:55:38;;;;;;;7.10;5.35;;;;;;;32.41;36.13;100711.81;5055109;28;20033;-51
2022/08/14 10:58:06;;;;;;;7.80;5.05;;;;;;;32.53;34.91;100716.78;5049882;28;20123;-49
2022/08/14 11:00:32;;;;;;;7.78;5.43;;;;;;;32.58;37.09;100724.97;5033936;28;20036;-50
2022/08/14 11:02:59;;;;;;;7.32;4.80;;;;;;;32.62;34.30;100717.72;5039418;28;20025;-51
2022/08/14 11:05:26;;;;;;;6.20;4.50;;;;;;;32.71;34.06;100718.59;5048054;28;20060;-52
2022/08/14 11:07:54;;;;;;;5.65;4.75;;;;;;;32.84;34.42;100708.63;5055131;28;20024;-49
2022/08/14 11:10:22;;;;;;;6.80;4.97;;;;;;;33.05;36.08;100705.31;5046710;28;20082;-51
2022/08/14 11:12:49;;;;;;;6.15;4.88;;;;;;;33.04;33.74;100709.22;5034256;28;20048;-51
2022/08/14 11:15:26;;;;;;;9.40;4.68;;;;;;;33.16;34.82;100709.47;5034482;28;20036;-49
2022/08/14 11:17:52;;;;;;;8.68;4.68;;;;;;;33.27;33.14;100716.38;5037690;28;20172;-52
2022/08/14 11:20:22;;;;;;;5.68;4.57;;;;;;;33.32;33.21;100709.91;5038206;28;20109;-50
2022/08/14 11:22:51;;;;;;;8.97;4.60;;;;;;;33.37;33.72;100714.44;5038776;28;20514;-52
2022/08/14 11:25:19;;;;;;;5.97;4.40;;;;;;;33.35;31.76;100708.41;5037527;28;20314;-50
2022/08/14 11:27:45;;;;;;;7.80;4.40;;;;;;;33.35;32.49;100706.50;5048048;28;20032;-47
2022/08/14 11:30:21;;;;;;;7.65;4.22;;;;;;;33.44;31.67;100706.53;5053508;28;20021;-51
2022/08/14 11:32:49;;;;;;;11.18;4.53;;;;;;;33.55;30.62;100701.50;5053218;28;20029;-48
2022/08/14 11:35:23;;;;;;;7.85;3.92;;;;;;;33.72;30.70;100701.59;5057843;28;20112;-51
2022/08/14 11:37:57;;;;;;;5.75;3.80;;;;;;;33.90;30.52;100707.19;5056882;28;20433;-48